Terminal Aerodrome Forecast
Issued by NWS

Home | Current Version | Previous Version | Text Only | Print | Product List | Glossary On
Versions: 1 2 3 4 5 6 7 8 9 10 11 12 13 14 15 16 17 18
000
FTUS44 KMAF 280200 AAA
TAFCNM
TAF AMD
KCNM 280203Z 2802/2824 23007KT P6SM BKN035
     FM280600 VRB05KT P6SM SKC
      TEMPO 2808/2812 4SM BR OVC020
     FM282000 24013KT P6SM SKC=

USA.gov is the U.S. government's official web portal to all federal, state and local government web resources and services.